sensor_id;sensor_type;location;lat;lon;timestamp;pressure;altitude;pressure_sealevel;temperature;humidity
68822;BME280;55834;50.870;4.606;2023-02-21T00:00:14;101517.94;;;7.07;61.03
68822;BME280;55834;50.870;4.606;2023-02-21T00:02:57;101524.06;;;6.91;61.18
68822;BME280;55834;50.870;4.606;2023-02-21T00:05:41;101528.41;;;7.27;61.08
68822;BME280;55834;50.870;4.606;2023-02-21T00:08:25;101517.94;;;6.99;60.64
68822;BME280;55834;50.870;4.606;2023-02-21T00:11:08;101514.34;;;6.13;62.25
68822;BME280;55834;50.870;4.606;2023-02-21T00:13:52;101503.91;;;6.41;62.25
68822;BME280;55834;50.870;4.606;2023-02-21T00:16:36;101501.31;;;6.65;62.48
68822;BME280;55834;50.870;4.606;2023-02-21T00:19:20;101510.91;;;6.49;61.54
68822;BME280;55834;50.870;4.606;2023-02-21T00:22:04;101508.31;;;6.89;62.00
68822;BME280;55834;50.870;4.606;2023-02-21T00:24:48;101520.53;;;7.19;60.65
68822;BME280;55834;50.870;4.606;2023-02-21T00:27:32;101519.53;;;5.88;63.01
68822;BME280;55834;50.870;4.606;2023-02-21T00:30:16;101518.72;;;6.14;64.77
68822;BME280;55834;50.870;4.606;2023-02-21T00:32:59;101503.91;;;6.51;63.30
68822;BME280;55834;50.870;4.606;2023-02-21T00:35:44;101508.31;;;6.77;62.89
68822;BME280;55834;50.870;4.606;2023-02-21T00:38:28;101506.56;;;6.82;62.12
68822;BME280;55834;50.870;4.606;2023-02-21T00:41:12;101531.03;;;6.55;61.56
68822;BME280;55834;50.870;4.606;2023-02-21T00:43:56;101543.00;;;5.70;64.84
68822;BME280;55834;50.870;4.606;2023-02-21T00:46:40;101527.44;;;6.13;64.83
68822;BME280;55834;50.870;4.606;2023-02-21T00:49:24;101515.22;;;6.18;63.54
68822;BME280;55834;50.870;4.606;2023-02-21T00:52:08;101504.75;;;6.37;62.48
68822;BME280;55834;50.870;4.606;2023-02-21T00:54:52;101505.56;;;5.91;64.36
68822;BME280;55834;50.870;4.606;2023-02-21T00:57:36;101514.38;;;6.31;63.76
68822;BME280;55834;50.870;4.606;2023-02-21T01:00:22;101523.06;;;6.07;65.50
68822;BME280;55834;50.870;4.606;2023-02-21T01:03:06;101529.28;;;6.63;64.62
68822;BME280;55834;50.870;4.606;2023-02-21T01:05:51;101519.69;;;6.88;61.88
68822;BME280;55834;50.870;4.606;2023-02-21T01:08:35;101520.50;;;6.43;61.74
68822;BME280;55834;50.870;4.606;2023-02-21T01:11:20;101507.41;;;6.56;61.89
68822;BME280;55834;50.870;4.606;2023-02-21T01:14:05;101491.69;;;6.69;62.52
68822;BME280;55834;50.870;4.606;2023-02-21T01:16:49;101494.31;;;6.86;61.30
68822;BME280;55834;50.870;4.606;2023-02-21T01:19:33;101492.56;;;6.95;60.42
68822;BME280;55834;50.870;4.606;2023-02-21T01:22:17;101495.19;;;6.88;62.22
68822;BME280;55834;50.870;4.606;2023-02-21T01:25:01;101493.44;;;6.73;60.96
68822;BME280;55834;50.870;4.606;2023-02-21T01:27:45;101497.84;;;6.72;60.73
68822;BME280;55834;50.870;4.606;2023-02-21T01:30:28;101498.66;;;7.04;62.00
68822;BME280;55834;50.870;4.606;2023-02-21T01:33:12;101500.41;;;6.60;61.83
68822;BME280;55834;50.870;4.606;2023-02-21T01:35:56;101491.66;;;6.44;63.54
68822;BME280;55834;50.870;4.606;2023-02-21T01:38:40;101493.44;;;6.61;62.64
68822;BME280;55834;50.870;4.606;2023-02-21T01:41:25;101482.03;;;6.45;62.50
68822;BME280;55834;50.870;4.606;2023-02-21T01:44:44;101484.69;;;6.71;63.04
68822;BME280;55834;50.870;4.606;2023-02-21T01:47:29;101496.03;;;7.10;62.62
68822;BME280;55834;50.870;4.606;2023-02-21T01:50:25;101505.59;;;7.32;61.23
68822;BME280;55834;50.870;4.606;2023-02-21T01:53:20;101499.53;;;7.07;59.90
68822;BME280;55834;50.870;4.606;2023-02-21T01:56:06;101496.03;;;6.97;60.54
68822;BME280;55834;50.870;4.606;2023-02-21T01:58:53;101478.50;;;7.18;60.74
68822;BME280;55834;50.870;4.606;2023-02-21T02:02:09;101482.03;;;7.03;60.86
68822;BME280;55834;50.870;4.606;2023-02-21T02:04:54;101477.66;;;7.16;61.14
68822;BME280;55834;50.870;4.606;2023-02-21T02:07:38;101478.53;;;6.95;59.83
68822;BME280;55834;50.870;4.606;2023-02-21T02:10:23;101482.06;;;6.92;60.32
68822;BME280;55834;50.870;4.606;2023-02-21T02:16:13;101481.13;;;7.19;60.37
68822;BME280;55834;50.870;4.606;2023-02-21T02:18:47;101471.47;;;7.29;60.70
68822;BME280;55834;50.870;4.606;2023-02-21T02:27:24;101467.06;;;7.39;59.80
68822;BME280;55834;50.870;4.606;2023-02-21T02:30:20;101465.41;;;7.07;59.62
68822;BME280;55834;50.870;4.606;2023-02-21T02:35:42;101464.44;;;7.30;60.85
68822;BME280;55834;50.870;4.606;2023-02-21T02:38:20;101473.22;;;7.26;58.81
68822;BME280;55834;50.870;4.606;2023-02-21T02:40:59;101464.47;;;7.36;60.05
68822;BME280;55834;50.870;4.606;2023-02-21T02:43:33;101452.25;;;7.24;59.47
68822;BME280;55834;50.870;4.606;2023-02-21T02:46:05;101455.72;;;7.26;60.09
68822;BME280;55834;50.870;4.606;2023-02-21T02:49:04;101456.59;;;7.20;59.30
68822;BME280;55834;50.870;4.606;2023-02-21T02:51:33;101453.09;;;7.31;60.16
68822;BME280;55834;50.870;4.606;2023-02-21T02:53:59;101452.19;;;7.35;59.62
68822;BME280;55834;50.870;4.606;2023-02-21T02:56:24;101447.81;;;7.29;58.96
68822;BME280;55834;50.870;4.606;2023-02-21T02:58:58;101453.06;;;7.37;58.99
68822;BME280;55834;50.870;4.606;2023-02-21T03:07:22;101436.44;;;7.36;58.76
68822;BME280;55834;50.870;4.606;2023-02-21T03:10:08;101434.66;;;7.37;58.74
68822;BME280;55834;50.870;4.606;2023-02-21T03:15:24;101424.19;;;7.31;58.52
68822;BME280;55834;50.870;4.606;2023-02-21T03:18:19;101430.41;;;7.10;60.39
68822;BME280;55834;50.870;4.606;2023-02-21T03:20:52;101431.19;;;7.29;60.63
68822;BME280;55834;50.870;4.606;2023-02-21T03:23:21;101432.09;;;7.28;59.25
68822;BME280;55834;50.870;4.606;2023-02-21T03:25:49;101441.75;;;7.19;60.01
68822;BME280;55834;50.870;4.606;2023-02-21T03:28:16;101437.28;;;7.35;60.06
68822;BME280;55834;50.870;4.606;2023-02-21T03:30:43;101434.72;;;7.24;58.43
68822;BME280;55834;50.870;4.606;2023-02-21T03:33:10;101433.06;;;6.93;59.45
68822;BME280;55834;50.870;4.606;2023-02-21T03:35:35;101425.16;;;6.99;60.73
68822;BME280;55834;50.870;4.606;2023-02-21T03:38:00;101428.63;;;7.09;60.72
68822;BME280;55834;50.870;4.606;2023-02-21T03:40:28;101419.00;;;7.15;59.71
68822;BME280;55834;50.870;4.606;2023-02-21T03:42:55;101425.16;;;6.91;59.97
68822;BME280;55834;50.870;4.606;2023-02-21T03:45:21;101414.66;;;7.10;60.70
68822;BME280;55834;50.870;4.606;2023-02-21T03:47:47;101420.84;;;6.46;60.35
68822;BME280;55834;50.870;4.606;2023-02-21T03:50:13;101416.44;;;6.89;61.93
68822;BME280;55834;50.870;4.606;2023-02-21T03:52:38;101412.06;;;6.82;61.10
68822;BME280;55834;50.870;4.606;2023-02-21T03:55:05;101416.44;;;6.88;60.88
68822;BME280;55834;50.870;4.606;2023-02-21T03:57:30;101411.22;;;6.59;62.19
68822;BME280;55834;50.870;4.606;2023-02-21T03:59:56;101413.81;;;6.80;61.51
68822;BME280;55834;50.870;4.606;2023-02-21T04:02:22;101419.03;;;6.94;61.39
68822;BME280;55834;50.870;4.606;2023-02-21T04:04:47;101418.16;;;7.03;60.54
68822;BME280;55834;50.870;4.606;2023-02-21T04:07:14;101423.44;;;6.60;59.88
68822;BME280;55834;50.870;4.606;2023-02-21T04:09:39;101414.72;;;6.65;61.87
68822;BME280;55834;50.870;4.606;2023-02-21T04:12:05;101408.56;;;6.86;61.06
68822;BME280;55834;50.870;4.606;2023-02-21T04:14:30;101411.22;;;6.52;60.77
68822;BME280;55834;50.870;4.606;2023-02-21T04:16:56;101405.09;;;6.66;61.77
68822;BME280;55834;50.870;4.606;2023-02-21T04:19:21;101415.59;;;6.55;61.22
68822;BME280;55834;50.870;4.606;2023-02-21T04:21:46;101409.47;;;6.71;61.67
68822;BME280;55834;50.870;4.606;2023-02-21T04:24:12;101408.63;;;6.69;60.72
68822;BME280;55834;50.870;4.606;2023-02-21T04:26:37;101413.84;;;6.69;60.78
68822;BME280;55834;50.870;4.606;2023-02-21T04:29:03;101416.47;;;6.59;60.70
68822;BME280;55834;50.870;4.606;2023-02-21T04:31:29;101405.94;;;6.83;60.95
68822;BME280;55834;50.870;4.606;2023-02-21T04:33:54;101407.72;;;6.75;60.59
68822;BME280;55834;50.870;4.606;2023-02-21T04:36:20;101405.06;;;6.87;60.43
68822;BME280;55834;50.870;4.606;2023-02-21T04:38:45;101403.31;;;6.95;60.89
68822;BME280;55834;50.870;4.606;2023-02-21T04:41:10;101406.84;;;6.76;59.37
68822;BME280;55834;50.870;4.606;2023-02-21T04:43:36;101412.94;;;6.87;60.74
68822;BME280;55834;50.870;4.606;2023-02-21T04:46:01;101406.78;;;6.97;59.98
68822;BME280;55834;50.870;4.606;2023-02-21T04:48:26;101412.97;;;6.84;58.75
68822;BME280;55834;50.870;4.606;2023-02-21T04:50:52;101408.59;;;6.55;60.21
68822;BME280;55834;50.870;4.606;2023-02-21T04:53:17;101400.69;;;6.80;61.36
68822;BME280;55834;50.870;4.606;2023-02-21T04:55:43;101408.59;;;6.78;60.01
68822;BME280;55834;50.870;4.606;2023-02-21T04:58:08;101413.84;;;6.48;60.53
68822;BME280;55834;50.870;4.606;2023-02-21T05:00:33;101412.94;;;6.43;62.09
68822;BME280;55834;50.870;4.606;2023-02-21T05:03:00;101413.84;;;6.06;61.38
68822;BME280;55834;50.870;4.606;2023-02-21T05:05:25;101407.75;;;6.29;61.87
68822;BME280;55834;50.870;4.606;2023-02-21T05:07:51;101398.09;;;6.46;61.79
68822;BME280;55834;50.870;4.606;2023-02-21T05:10:17;101406.84;;;6.36;60.56
68822;BME280;55834;50.870;4.606;2023-02-21T05:12:43;101414.66;;;5.90;61.40
68822;BME280;55834;50.870;4.606;2023-02-21T05:15:08;101405.94;;;6.05;62.05
68822;BME280;55834;50.870;4.606;2023-02-21T05:17:34;101407.75;;;6.23;62.02
68822;BME280;55834;50.870;4.606;2023-02-21T05:20:00;101410.34;;;6.21;61.69
68822;BME280;55834;50.870;4.606;2023-02-21T05:22:26;101401.59;;;5.98;62.08
68822;BME280;55834;50.870;4.606;2023-02-21T05:24:51;101400.69;;;5.82;62.17
68822;BME280;55834;50.870;4.606;2023-02-21T05:27:18;101393.69;;;5.81;62.45
68822;BME280;55834;50.870;4.606;2023-02-21T05:29:48;101400.75;;;6.37;63.19
68822;BME280;55834;50.870;4.606;2023-02-21T05:32:15;101396.34;;;6.01;60.83
68822;BME280;55834;50.870;4.606;2023-02-21T05:34:40;101395.47;;;5.97;61.42
68822;BME280;55834;50.870;4.606;2023-02-21T05:37:11;101391.09;;;5.95;61.58
68822;BME280;55834;50.870;4.606;2023-02-21T05:39:37;101392.88;;;6.29;62.89
68822;BME280;55834;50.870;4.606;2023-02-21T05:42:02;101385.88;;;6.34;62.28
68822;BME280;55834;50.870;4.606;2023-02-21T05:44:28;101388.47;;;6.48;60.77
68822;BME280;55834;50.870;4.606;2023-02-21T05:46:53;101385.84;;;6.57;60.33
68822;BME280;55834;50.870;4.606;2023-02-21T05:49:19;101383.22;;;6.79;60.33
68822;BME280;55834;50.870;4.606;2023-02-21T05:51:44;101384.94;;;6.89;59.99
68822;BME280;55834;50.870;4.606;2023-02-21T05:54:15;101386.72;;;6.66;60.18
68822;BME280;55834;50.870;4.606;2023-02-21T05:56:42;101383.22;;;6.62;60.18
68822;BME280;55834;50.870;4.606;2023-02-21T05:59:08;101399.81;;;6.63;59.54
68822;BME280;55834;50.870;4.606;2023-02-21T06:01:35;101390.22;;;6.48;59.95
68822;BME280;55834;50.870;4.606;2023-02-21T06:04:00;101388.47;;;6.48;60.36
68822;BME280;55834;50.870;4.606;2023-02-21T06:06:25;101387.59;;;6.54;61.46
68822;BME280;55834;50.870;4.606;2023-02-21T06:08:51;101389.38;;;6.52;60.77
68822;BME280;55834;50.870;4.606;2023-02-21T06:11:25;101382.34;;;6.74;60.22
68822;BME280;55834;50.870;4.606;2023-02-21T06:13:53;101379.75;;;6.69;59.06
68822;BME280;55834;50.870;4.606;2023-02-21T06:16:19;101382.34;;;6.54;59.04
68822;BME280;55834;50.870;4.606;2023-02-21T06:18:49;101380.59;;;6.59;60.23
68822;BME280;55834;50.870;4.606;2023-02-21T06:21:14;101377.09;;;6.57;60.42
68822;BME280;55834;50.870;4.606;2023-02-21T06:23:40;101377.09;;;6.77;60.09
68822;BME280;55834;50.870;4.606;2023-02-21T06:26:05;101377.97;;;6.87;59.16
68822;BME280;55834;50.870;4.606;2023-02-21T06:28:31;101369.22;;;6.75;58.96
68822;BME280;55834;50.870;4.606;2023-02-21T06:30:56;101374.47;;;6.74;58.87
68822;BME280;55834;50.870;4.606;2023-02-21T06:33:22;101365.72;;;6.61;59.21
68822;BME280;55834;50.870;4.606;2023-02-21T06:35:48;101366.63;;;6.63;59.32
68822;BME280;55834;50.870;4.606;2023-02-21T06:38:13;101368.38;;;6.49;60.22
68822;BME280;55834;50.870;4.606;2023-02-21T06:40:39;101376.25;;;6.47;59.52
68822;BME280;55834;50.870;4.606;2023-02-21T06:43:06;101378.00;;;6.36;59.65
68822;BME280;55834;50.870;4.606;2023-02-21T06:45:31;101371.88;;;6.06;60.32
68822;BME280;55834;50.870;4.606;2023-02-21T06:47:56;101372.75;;;6.28;60.98
68822;BME280;55834;50.870;4.606;2023-02-21T06:50:22;101378.88;;;6.24;60.29
68822;BME280;55834;50.870;4.606;2023-02-21T06:52:47;101387.63;;;6.43;60.44
68822;BME280;55834;50.870;4.606;2023-02-21T06:55:12;101394.59;;;6.61;59.99
68822;BME280;55834;50.870;4.606;2023-02-21T06:57:38;101377.97;;;6.64;59.60
68822;BME280;55834;50.870;4.606;2023-02-21T07:00:04;101383.22;;;6.61;58.84
68822;BME280;55834;50.870;4.606;2023-02-21T07:02:30;101385.84;;;6.51;58.87
68822;BME280;55834;50.870;4.606;2023-02-21T07:04:55;101391.09;;;6.59;59.28
68822;BME280;55834;50.870;4.606;2023-02-21T07:07:21;101381.47;;;6.61;59.71
68822;BME280;55834;50.870;4.606;2023-02-21T07:09:46;101389.34;;;6.64;59.47
68822;BME280;55834;50.870;4.606;2023-02-21T07:12:11;101384.13;;;6.52;59.41
68822;BME280;55834;50.870;4.606;2023-02-21T07:14:37;101383.25;;;6.18;58.15
68822;BME280;55834;50.870;4.606;2023-02-21T07:17:02;101387.59;;;6.45;59.93
68822;BME280;55834;50.870;4.606;2023-02-21T07:19:27;101379.72;;;6.62;59.64
68822;BME280;55834;50.870;4.606;2023-02-21T07:21:53;101385.84;;;6.59;59.66
68822;BME280;55834;50.870;4.606;2023-02-21T07:24:18;101378.84;;;6.69;58.89
68822;BME280;55834;50.870;4.606;2023-02-21T07:26:43;101382.38;;;6.36;58.52
68822;BME280;55834;50.870;4.606;2023-02-21T07:29:09;101392.00;;;6.35;59.06
68822;BME280;55834;50.870;4.606;2023-02-21T07:31:34;101381.47;;;6.50;60.34
68822;BME280;55834;50.870;4.606;2023-02-21T07:33:59;101385.88;;;6.24;59.59
68822;BME280;55834;50.870;4.606;2023-02-21T07:36:25;101392.88;;;6.20;59.67
68822;BME280;55834;50.870;4.606;2023-02-21T07:38:50;101395.50;;;6.43;59.58
68822;BME280;55834;50.870;4.606;2023-02-21T07:41:16;101392.00;;;6.12;59.66
68822;BME280;55834;50.870;4.606;2023-02-21T07:43:41;101395.47;;;6.45;60.46
68822;BME280;55834;50.870;4.606;2023-02-21T07:46:15;101388.47;;;6.25;59.50
68822;BME280;55834;50.870;4.606;2023-02-21T07:48:41;101388.47;;;6.62;60.56
68822;BME280;55834;50.870;4.606;2023-02-21T07:51:07;101382.34;;;6.68;58.61
68822;BME280;55834;50.870;4.606;2023-02-21T07:53:33;101381.47;;;6.53;59.27
68822;BME280;55834;50.870;4.606;2023-02-21T07:55:58;101382.38;;;6.49;58.91
68822;BME280;55834;50.870;4.606;2023-02-21T07:58:24;101385.00;;;6.40;59.89
68822;BME280;55834;50.870;4.606;2023-02-21T08:00:50;101391.13;;;6.70;60.23
68822;BME280;55834;50.870;4.606;2023-02-21T08:03:16;101392.84;;;6.48;58.38
68822;BME280;55834;50.870;4.606;2023-02-21T08:05:42;101391.97;;;6.50;60.12
68822;BME280;55834;50.870;4.606;2023-02-21T08:08:08;101391.97;;;6.55;59.08
68822;BME280;55834;50.870;4.606;2023-02-21T08:10:33;101398.97;;;6.64;59.57
68822;BME280;55834;50.870;4.606;2023-02-21T08:12:59;101392.84;;;6.75;60.04
68822;BME280;55834;50.870;4.606;2023-02-21T08:15:24;101394.59;;;6.81;59.15
68822;BME280;55834;50.870;4.606;2023-02-21T08:17:50;101382.28;;;6.94;59.31
68822;BME280;55834;50.870;4.606;2023-02-21T08:20:16;101387.59;;;6.51;58.87
68822;BME280;55834;50.870;4.606;2023-02-21T08:22:42;101391.09;;;6.59;60.21
68822;BME280;55834;50.870;4.606;2023-02-21T08:25:10;101395.47;;;6.78;60.54
68822;BME280;55834;50.870;4.606;2023-02-21T08:27:38;101389.34;;;6.66;58.15
68822;BME280;55834;50.870;4.606;2023-02-21T08:30:04;101392.84;;;6.51;58.50
68822;BME280;55834;50.870;4.606;2023-02-21T08:32:29;101383.22;;;6.84;59.54
68822;BME280;55834;50.870;4.606;2023-02-21T08:34:54;101384.97;;;6.78;59.35
68822;BME280;55834;50.870;4.606;2023-02-21T08:37:20;101383.13;;;7.05;60.14
68822;BME280;55834;50.870;4.606;2023-02-21T08:39:46;101386.59;;;7.16;58.53
68822;BME280;55834;50.870;4.606;2023-02-21T08:42:12;101380.44;;;7.25;57.87
68822;BME280;55834;50.870;4.606;2023-02-21T08:44:37;101387.56;;;6.89;58.91
68822;BME280;55834;50.870;4.606;2023-02-21T08:47:03;101387.53;;;7.00;59.47
68822;BME280;55834;50.870;4.606;2023-02-21T08:49:28;101381.47;;;6.76;59.05
68822;BME280;55834;50.870;4.606;2023-02-21T08:51:53;101370.94;;;6.89;59.89
68822;BME280;55834;50.870;4.606;2023-02-21T08:54:19;101373.53;;;7.01;59.42
68822;BME280;55834;50.870;4.606;2023-02-21T08:56:44;101374.38;;;7.11;59.44
68822;BME280;55834;50.870;4.606;2023-02-21T08:59:10;101375.16;;;7.30;59.07
68822;BME280;55834;50.870;4.606;2023-02-21T09:01:35;101375.97;;;7.42;58.11
68822;BME280;55834;50.870;4.606;2023-02-21T09:04:02;101374.22;;;7.44;57.16
68822;BME280;55834;50.870;4.606;2023-02-21T09:06:28;101375.16;;;7.27;58.15
68822;BME280;55834;50.870;4.606;2023-02-21T09:08:53;101382.13;;;7.38;58.60
68822;BME280;55834;50.870;4.606;2023-02-21T09:11:19;101370.69;;;7.50;57.75
68822;BME280;55834;50.870;4.606;2023-02-21T09:13:44;101374.28;;;7.26;57.44
68822;BME280;55834;50.870;4.606;2023-02-21T09:16:09;101372.56;;;7.22;59.19
68822;BME280;55834;50.870;4.606;2023-02-21T09:18:35;101367.34;;;7.11;57.41
68822;BME280;55834;50.870;4.606;2023-02-21T09:21:00;101372.53;;;7.31;58.98
68822;BME280;55834;50.870;4.606;2023-02-21T09:23:28;101365.41;;;7.53;59.06
68822;BME280;55834;50.870;4.606;2023-02-21T09:25:54;101362.69;;;7.67;58.30
68822;BME280;55834;50.870;4.606;2023-02-21T09:28:20;101357.59;;;7.38;56.88
68822;BME280;55834;50.870;4.606;2023-02-21T09:30:46;101357.56;;;7.47;58.62
68822;BME280;55834;50.870;4.606;2023-02-21T09:33:13;101360.94;;;7.66;58.39
68822;BME280;55834;50.870;4.606;2023-02-21T09:35:38;101361.19;;;7.21;57.35
68822;BME280;55834;50.870;4.606;2023-02-21T09:38:05;101348.97;;;7.16;58.35
68822;BME280;55834;50.870;4.606;2023-02-21T09:40:49;101345.38;;;7.29;58.66
68822;BME280;55834;50.870;4.606;2023-02-21T09:43:35;101354.91;;;7.49;58.97
68822;BME280;55834;50.870;4.606;2023-02-21T09:46:05;101349.66;;;7.52;57.90
68822;BME280;55834;50.870;4.606;2023-02-21T09:48:32;101346.09;;;7.62;58.49
68822;BME280;55834;50.870;4.606;2023-02-21T09:51:02;101351.41;;;7.50;56.96
68822;BME280;55834;50.870;4.606;2023-02-21T09:53:31;101340.84;;;7.59;57.80
68822;BME280;55834;50.870;4.606;2023-02-21T09:56:10;101343.50;;;7.54;57.08
68822;BME280;55834;50.870;4.606;2023-02-21T09:58:40;101346.28;;;7.28;59.08
68822;BME280;55834;50.870;4.606;2023-02-21T10:01:19;101346.25;;;7.34;58.80
68822;BME280;55834;50.870;4.606;2023-02-21T10:03:56;101344.50;;;7.32;58.20
68822;BME280;55834;50.870;4.606;2023-02-21T10:09:02;101347.88;;;7.55;59.19
68822;BME280;55834;50.870;4.606;2023-02-21T10:22:54;101352.31;;;7.44;58.95
68822;BME280;55834;50.870;4.606;2023-02-21T10:25:30;101354.06;;;7.43;58.21
68822;BME280;55834;50.870;4.606;2023-02-21T10:27:57;101353.94;;;7.63;58.54
68822;BME280;55834;50.870;4.606;2023-02-21T10:32:48;101347.06;;;7.42;57.52
68822;BME280;55834;50.870;4.606;2023-02-21T10:35:13;101343.59;;;7.42;58.91
68822;BME280;55834;50.870;4.606;2023-02-21T10:37:45;101348.88;;;7.30;59.36
68822;BME280;55834;50.870;4.606;2023-02-21T10:43:12;101334.97;;;7.06;61.19
68822;BME280;55834;50.870;4.606;2023-02-21T10:45:52;101341.91;;;7.26;59.65
68822;BME280;55834;50.870;4.606;2023-02-21T10:48:24;101338.38;;;7.36;58.50
68822;BME280;55834;50.870;4.606;2023-02-21T10:50:53;101345.25;;;7.52;58.02
68822;BME280;55834;50.870;4.606;2023-02-21T10:53:31;101339.28;;;7.26;57.29
68822;BME280;55834;50.870;4.606;2023-02-21T10:58:52;101348.28;;;6.22;60.17
68822;BME280;55834;50.870;4.606;2023-02-21T11:04:36;101343.03;;;6.25;61.04
68822;BME280;55834;50.870;4.606;2023-02-21T11:06:38;101340.28;;;5.27;62.94
68822;BME280;55834;50.870;4.606;2023-02-21T11:11:59;101333.34;;;6.74;61.19
68822;BME280;55834;50.870;4.606;2023-02-21T11:14:25;101335.16;;;6.42;60.60
68822;BME280;55834;50.870;4.606;2023-02-21T11:17:06;101333.34;;;6.71;60.33
68822;BME280;55834;50.870;4.606;2023-02-21T11:22:23;101325.50;;;5.33;63.71
68822;BME280;55834;50.870;4.606;2023-02-21T11:24:58;101311.59;;;5.77;64.42
68822;BME280;55834;50.870;4.606;2023-02-21T11:27:25;101301.91;;;6.48;64.53
68822;BME280;55834;50.870;4.606;2023-02-21T11:29:52;101302.66;;;7.01;63.41
68822;BME280;55834;50.870;4.606;2023-02-21T11:32:23;101307.72;;;7.32;61.01
68822;BME280;55834;50.870;4.606;2023-02-21T11:34:49;101301.00;;;6.75;59.90
68822;BME280;55834;50.870;4.606;2023-02-21T11:37:15;101298.47;;;5.99;62.63
68822;BME280;55834;50.870;4.606;2023-02-21T11:39:49;101297.53;;;6.43;62.65
68822;BME280;55834;50.870;4.606;2023-02-21T11:42:30;101288.63;;;7.02;62.18
68822;BME280;55834;50.870;4.606;2023-02-21T11:45:13;101295.69;;;6.92;60.86
68822;BME280;55834;50.870;4.606;2023-02-21T11:47:51;101293.19;;;6.36;62.75
68822;BME280;55834;50.870;4.606;2023-02-21T11:50:26;101287.84;;;6.85;60.58
68822;BME280;55834;50.870;4.606;2023-02-21T11:53:05;101291.16;;;7.22;58.63
68822;BME280;55834;50.870;4.606;2023-02-21T11:55:31;101293.69;;;7.37;58.42
68822;BME280;55834;50.870;4.606;2023-02-21T12:00:50;101286.38;;;7.78;57.09
68822;BME280;55834;50.870;4.606;2023-02-21T12:06:05;101281.16;;;7.75;57.15
68822;BME280;55834;50.870;4.606;2023-02-21T12:08:43;101279.28;;;7.90;57.93
68822;BME280;55834;50.870;4.606;2023-02-21T12:13:58;101274.59;;;8.26;57.38
68822;BME280;55834;50.870;4.606;2023-02-21T12:16:39;101279.22;;;7.97;56.43
68822;BME280;55834;50.870;4.606;2023-02-21T12:19:21;101274.03;;;7.89;57.95
68822;BME280;55834;50.870;4.606;2023-02-21T12:27:01;101250.97;;;8.19;57.34
68822;BME280;55834;50.870;4.606;2023-02-21T12:32:49;101247.50;;;8.20;56.55
68822;BME280;55834;50.870;4.606;2023-02-21T12:38:16;101249.06;;;7.33;58.93
68822;BME280;55834;50.870;4.606;2023-02-21T12:46:20;101231.56;;;8.32;56.16
68822;BME280;55834;50.870;4.606;2023-02-21T12:49:05;101225.03;;;7.80;56.78
68822;BME280;55834;50.870;4.606;2023-02-21T12:51:38;101232.56;;;8.19;58.30
68822;BME280;55834;50.870;4.606;2023-02-21T12:54:10;101220.13;;;8.33;56.41
68822;BME280;55834;50.870;4.606;2023-02-21T12:56:47;101215.75;;;8.35;55.42
68822;BME280;55834;50.870;4.606;2023-02-21T12:59:37;101215.75;;;8.35;56.92
68822;BME280;55834;50.870;4.606;2023-02-21T13:05:02;101208.19;;;8.77;55.22
68822;BME280;55834;50.870;4.606;2023-02-21T13:07:37;101217.19;;;8.61;55.19
68822;BME280;55834;50.870;4.606;2023-02-21T13:10:24;101215.38;;;8.66;56.03
68822;BME280;55834;50.870;4.606;2023-02-21T13:12:57;101205.94;;;8.49;54.82
68822;BME280;55834;50.870;4.606;2023-02-21T13:15:28;101204.47;;;8.24;55.56
68822;BME280;55834;50.870;4.606;2023-02-21T13:18:07;101195.44;;;8.45;56.38
68822;BME280;55834;50.870;4.606;2023-02-21T13:23:34;101195.75;;;8.90;55.66
68822;BME280;55834;50.870;4.606;2023-02-21T13:28:44;101190.00;;;8.58;54.61
68822;BME280;55834;50.870;4.606;2023-02-21T13:31:22;101186.00;;;8.28;55.35
68822;BME280;55834;50.870;4.606;2023-02-21T13:33:54;101189.28;;;8.49;55.75
68822;BME280;55834;50.870;4.606;2023-02-21T13:36:32;101178.44;;;8.72;55.07
68822;BME280;55834;50.870;4.606;2023-02-21T13:39:19;101170.31;;;8.21;55.88
68822;BME280;55834;50.870;4.606;2023-02-21T13:41:51;101171.47;;;8.68;55.56
68822;BME280;55834;50.870;4.606;2023-02-21T14:10:50;101149.88;;;9.03;54.43
68822;BME280;55834;50.870;4.606;2023-02-21T14:13:37;101140.19;;;9.05;53.51
68822;BME280;55834;50.870;4.606;2023-02-21T14:21:46;101132.84;;;9.27;53.26
68822;BME280;55834;50.870;4.606;2023-02-21T14:24:26;101141.75;;;9.17;53.44
68822;BME280;55834;50.870;4.606;2023-02-21T14:32:14;101131.56;;;8.35;53.73
68822;BME280;55834;50.870;4.606;2023-02-21T14:34:51;101131.72;;;8.86;54.79
68822;BME280;55834;50.870;4.606;2023-02-21T14:40:01;101130.06;;;8.80;54.96
68822;BME280;55834;50.870;4.606;2023-02-21T14:48:44;101115.69;;;9.01;51.83
68822;BME280;55834;50.870;4.606;2023-02-21T14:54:20;101115.31;;;8.67;53.53
68822;BME280;55834;50.870;4.606;2023-02-21T14:57:03;101115.53;;;7.78;55.73
68822;BME280;55834;50.870;4.606;2023-02-21T15:02:50;101115.75;;;7.55;58.39
68822;BME280;55834;50.870;4.606;2023-02-21T15:05:30;101111.19;;;7.75;58.03
68822;BME280;55834;50.870;4.606;2023-02-21T15:08:21;101117.53;;;7.54;56.75
68822;BME280;55834;50.870;4.606;2023-02-21T15:10:49;101107.91;;;7.53;57.42
68822;BME280;55834;50.870;4.606;2023-02-21T15:13:24;101114.28;;;8.14;56.51
68822;BME280;55834;50.870;4.606;2023-02-21T15:15:59;101113.63;;;8.62;55.76
68822;BME280;55834;50.870;4.606;2023-02-21T15:18:31;101115.25;;;8.72;54.56
68822;BME280;55834;50.870;4.606;2023-02-21T15:21:18;101109.38;;;7.80;55.33
68822;BME280;55834;50.870;4.606;2023-02-21T15:23:58;101106.59;;;7.92;57.51
68822;BME280;55834;50.870;4.606;2023-02-21T15:26:27;101104.44;;;8.30;56.40
68822;BME280;55834;50.870;4.606;2023-02-21T15:31:34;101104.13;;;7.80;55.77
68822;BME280;55834;50.870;4.606;2023-02-21T15:34:00;101101.53;;;7.76;56.93
68822;BME280;55834;50.870;4.606;2023-02-21T15:36:26;101100.31;;;7.22;58.06
68822;BME280;55834;50.870;4.606;2023-02-21T15:39:06;101096.81;;;7.22;58.81
68822;BME280;55834;50.870;4.606;2023-02-21T15:41:39;101091.94;;;7.70;57.45
68822;BME280;55834;50.870;4.606;2023-02-21T15:44:18;101091.16;;;7.65;58.74